Bowerman Airport Hoquiam US
ICAO: KHQM
IATA: HQM
Category: Medium
Scheduled Services: No

Elevation: 18 ft
TransAlt. 18000 ft.

Airport Communications:
ASOS:135.775
SEATTLE CNTR:128.3
SEATTLE RDO:122.2
CTAF/UNICOM:122.7

KHQM Zoom In..

Runways:

(A) RW 06 length 5000 ft width 150 ft
---- / hdg 60

(B) RW 24 length 5000 ft width 150 ft
ILS 108.70 / hdg 240

Location; KHQM
Day. 15 / Time. 21.53 Zulu
* Altimeter: 29.99
* Temperature: 24° c. 75.2°f.
* Wind from: 240° Speed 12 kn.
Dewpoint: 15° c.
Visibility: 8 Statute Miles.
Clouds: Clear (automated report).

KHQM 152153Z AUTO 24012KT 8SM CLR 24/15 A2999 RMK AO2 SLP159 T02390150


Wind From 240°
Speed 12 kn.

 
 
jpsmedia.com for Web Design worldairports.se 2018   terms of use